createdAt,value
2022-10-11T00:04:02.823Z,99.90
2022-10-11T00:09:06.765Z,99.90
2022-10-11T00:14:10.139Z,99.90
2022-10-11T00:19:14.817Z,99.90
2022-10-11T00:24:22.543Z,99.90
2022-10-11T00:29:25.721Z,99.90
2022-10-11T00:34:30.586Z,99.90
2022-10-11T00:39:37.255Z,99.90
2022-10-11T00:44:41.541Z,99.90
2022-10-11T00:49:47.680Z,99.90
2022-10-11T00:54:51.228Z,99.90
2022-10-11T00:59:55.365Z,99.90
2022-10-11T01:05:25.224Z,99.90
2022-10-11T01:10:24.454Z,99.90
2022-10-11T01:15:29.934Z,99.90
2022-10-11T01:20:42.038Z,99.90
2022-10-11T01:25:50.489Z,99.90
2022-10-11T01:30:54.961Z,99.90
2022-10-11T01:36:03.750Z,99.90
2022-10-11T01:41:09.370Z,99.90
2022-10-11T01:46:15.080Z,99.90
2022-10-11T01:51:18.302Z,99.90
2022-10-11T01:56:31.631Z,99.90
2022-10-11T02:01:42.754Z,99.90
2022-10-11T02:06:50.291Z,99.90
2022-10-11T02:11:53.793Z,99.90
2022-10-11T02:17:04.156Z,99.90
2022-10-11T02:22:09.304Z,99.90
2022-10-11T02:27:12.425Z,99.90
2022-10-11T02:32:17.014Z,99.90
2022-10-11T02:37:24.804Z,99.90
2022-10-11T02:42:31.039Z,99.90
2022-10-11T02:47:40.575Z,99.90
2022-10-11T02:52:43.634Z,99.90
2022-10-11T02:57:47.029Z,99.90
2022-10-11T03:02:56.784Z,99.90
2022-10-11T03:07:59.875Z,99.90
2022-10-11T03:13:03.038Z,99.90
2022-10-11T03:18:08.246Z,99.90
2022-10-11T03:23:11.525Z,99.90
2022-10-11T03:28:14.687Z,99.90
2022-10-11T03:33:19.760Z,99.90
2022-10-11T03:38:23.513Z,99.90
2022-10-11T03:43:27.021Z,99.90
2022-10-11T03:48:32.258Z,99.90
2022-10-11T03:53:35.320Z,99.90
2022-10-11T03:58:41.706Z,99.90
2022-10-11T04:03:47.950Z,99.90
2022-10-11T04:08:51.053Z,99.90
2022-10-11T04:13:54.778Z,99.90
2022-10-11T04:18:59.674Z,99.90
2022-10-11T04:24:02.860Z,99.90
2022-10-11T04:29:06.358Z,99.90
2022-10-11T04:34:10.973Z,99.90
2022-10-11T04:39:14.099Z,99.90
2022-10-11T04:44:17.372Z,99.90
2022-10-11T04:49:22.167Z,99.90
2022-10-11T04:54:25.519Z,99.90
2022-10-11T04:59:31.089Z,99.90
2022-10-11T05:04:35.952Z,99.90
2022-10-11T05:09:39.348Z,99.90
2022-10-11T05:14:42.421Z,99.90
2022-10-11T05:19:46.838Z,99.90
2022-10-11T05:24:50.004Z,99.90
2022-10-11T05:29:53.187Z,99.90
2022-10-11T05:34:58.084Z,99.90
2022-10-11T05:40:01.601Z,99.90
2022-10-11T05:45:05.040Z,99.90
2022-10-11T05:50:10.654Z,99.90
2022-10-11T05:55:13.811Z,99.90
2022-10-11T06:00:20.543Z,99.90
2022-10-11T06:05:25.985Z,99.90
2022-10-11T06:10:30.084Z,99.90
2022-10-11T06:15:34.010Z,99.90
2022-10-11T06:20:42.405Z,99.90
2022-10-11T06:25:59.334Z,99.90
2022-10-11T06:31:06.074Z,99.90
2022-10-11T06:36:17.647Z,99.90
2022-10-11T06:41:26.195Z,99.90
2022-10-11T06:46:33.085Z,99.90
2022-10-11T06:51:40.428Z,99.90
2022-10-11T06:56:49.177Z,99.90
2022-10-11T07:01:52.880Z,99.90
2022-10-11T07:06:58.753Z,99.90
2022-10-11T07:12:03.571Z,99.90
2022-10-11T07:17:08.341Z,99.90
2022-10-11T07:22:13.395Z,99.90
2022-10-11T07:27:17.912Z,99.90
2022-10-11T07:32:23.230Z,99.90
2022-10-11T07:37:29.551Z,99.90
2022-10-11T07:42:37.559Z,99.90
2022-10-11T07:47:46.437Z,99.90
2022-10-11T07:52:52.668Z,99.90
2022-10-11T07:57:56.926Z,99.90
2022-10-11T08:03:04.260Z,99.90
2022-10-11T08:08:09.291Z,99.90
2022-10-11T08:13:15.858Z,99.90
2022-10-11T08:18:19.477Z,99.90
2022-10-11T08:23:23.950Z,99.90
2022-10-11T08:28:28.019Z,99.90
2022-10-11T08:33:35.470Z,99.90
2022-10-11T08:38:41.067Z,99.90
2022-10-11T08:43:47.174Z,99.90
2022-10-11T08:48:50.953Z,99.90
2022-10-11T08:53:58.011Z,99.90
2022-10-11T08:59:04.125Z,99.90
2022-10-11T09:04:11.647Z,99.90
2022-10-11T09:09:28.495Z,99.90
2022-10-11T09:15:02.095Z,99.90
2022-10-11T09:20:39.216Z,99.90
2022-10-11T09:25:49.648Z,99.90
2022-10-11T09:30:54.066Z,97.50
2022-10-11T09:35:58.213Z,98.20
2022-10-11T09:41:07.208Z,97.50
2022-10-11T09:46:15.380Z,92.80
2022-10-11T09:51:19.517Z,92.40
2022-10-11T09:56:24.812Z,94.60
2022-10-11T10:01:31.773Z,95.30
2022-10-11T10:06:36.908Z,93.80
2022-10-11T10:11:45.322Z,91.50
2022-10-11T10:16:51.747Z,91.70
2022-10-11T10:21:55.835Z,91.60
2022-10-11T10:27:25.338Z,90.30
2022-10-11T10:32:30.904Z,90.80
2022-10-11T10:37:35.836Z,89.60
2022-10-11T10:42:41.620Z,90.80
2022-10-11T10:47:53.882Z,91.50
2022-10-11T10:53:05.941Z,93.80
2022-10-11T10:58:24.812Z,88.10
2022-10-11T11:03:36.274Z,88.70
2022-10-11T11:08:59.702Z,87.90
2022-10-11T11:14:12.102Z,91.50
2022-10-11T11:19:30.142Z,89.30
2022-10-11T11:24:47.190Z,89.60
2022-10-11T11:29:56.412Z,89.20
2022-10-11T11:35:02.010Z,90.80
2022-10-11T11:40:09.194Z,86.40
2022-10-11T11:45:22.509Z,88.50
2022-10-11T11:50:28.675Z,89.40
2022-10-11T11:55:37.140Z,88.40
2022-10-11T12:00:56.004Z,86.70
2022-10-11T12:06:18.516Z,84.50
2022-10-11T12:11:23.129Z,84.30
2022-10-11T12:16:28.982Z,83.90
2022-10-11T12:21:33.387Z,86.50
2022-10-11T12:26:45.544Z,80.90
2022-10-11T12:31:52.235Z,83.40
2022-10-11T12:37:05.953Z,83.40
2022-10-11T12:42:29.093Z,85.80
2022-10-11T12:47:39.431Z,85.80
2022-10-11T12:53:00.980Z,82.60
2022-10-11T12:58:29.224Z,81.10
2022-10-11T13:03:35.983Z,80.00
2022-10-11T13:08:42.119Z,81.80
2022-10-11T13:13:46.873Z,79.00
2022-10-11T13:18:57.052Z,80.20
2022-10-11T13:24:02.992Z,79.20
2022-10-11T13:29:14.805Z,82.30
2022-10-11T13:34:23.166Z,81.10
2022-10-11T13:39:31.351Z,84.90
2022-10-11T13:44:39.875Z,83.90
2022-10-11T13:49:48.275Z,83.50
2022-10-11T13:55:06.152Z,82.10
2022-10-11T14:00:12.715Z,79.50
2022-10-11T14:05:30.542Z,76.20
2022-10-11T14:10:39.281Z,81.80
2022-10-11T14:15:49.908Z,81.00
2022-10-11T14:20:56.226Z,82.60
2022-10-11T14:26:02.549Z,77.90
2022-10-11T14:31:09.125Z,78.50
2022-10-11T14:36:15.179Z,75.80
2022-10-11T14:41:22.068Z,77.60
2022-10-11T14:46:27.636Z,78.30
2022-10-11T14:51:34.401Z,80.20
2022-10-11T14:56:38.692Z,77.00
2022-10-11T15:01:53.177Z,78.10
2022-10-11T15:07:02.242Z,76.60
2022-10-11T15:12:14.251Z,77.90
2022-10-11T15:17:22.619Z,76.10
2022-10-11T15:22:31.401Z,79.10
2022-10-11T15:27:42.608Z,77.80
2022-10-11T15:32:56.837Z,77.50
2022-10-11T15:38:06.673Z,76.60
2022-10-11T15:43:38.617Z,77.20
2022-10-11T15:48:42.948Z,79.10
2022-10-11T15:53:48.869Z,81.50
2022-10-11T15:58:53.982Z,82.10
2022-10-11T16:03:58.383Z,79.80
2022-10-11T16:09:08.160Z,78.90
2022-10-11T16:14:14.015Z,78.00
2022-10-11T16:19:19.401Z,80.20
2022-10-11T16:24:27.295Z,80.80
2022-10-11T16:29:30.751Z,83.00
2022-10-11T16:34:34.680Z,84.80
2022-10-11T16:39:39.823Z,86.50
2022-10-11T16:44:47.237Z,89.90
2022-10-11T16:49:51.862Z,90.70
2022-10-11T16:54:59.905Z,92.20
2022-10-11T17:00:07.216Z,93.00
2022-10-11T17:05:11.814Z,93.80
2022-10-11T17:10:16.587Z,95.30
2022-10-11T17:15:20.827Z,95.60
2022-10-11T17:20:23.996Z,96.40
2022-10-11T17:25:29.032Z,96.50
2022-10-11T17:30:33.091Z,96.70
2022-10-11T17:35:36.746Z,97.10
2022-10-11T17:40:41.960Z,96.80
2022-10-11T17:45:45.170Z,96.80
2022-10-11T17:50:50.729Z,96.80
2022-10-11T17:55:58.850Z,97.10
2022-10-11T18:01:03.609Z,98.20
2022-10-11T18:06:07.898Z,98.10
2022-10-11T18:11:13.460Z,98.80
2022-10-11T18:16:19.555Z,99.90
2022-10-11T18:21:23.195Z,99.00
2022-10-11T18:26:30.693Z,99.10
2022-10-11T18:31:35.324Z,99.30
2022-10-11T18:36:41.335Z,99.20
2022-10-11T18:41:46.269Z,99.90
2022-10-11T18:46:50.384Z,99.90
2022-10-11T18:51:54.507Z,99.90
2022-10-11T18:56:59.096Z,99.90
2022-10-11T19:02:04.178Z,99.90
2022-10-11T19:07:07.548Z,99.90
2022-10-11T19:12:12.557Z,99.90
2022-10-11T19:17:15.914Z,99.90
2022-10-11T19:22:19.793Z,99.90
2022-10-11T19:27:24.834Z,99.90
2022-10-11T19:32:30.326Z,99.90
2022-10-11T19:37:33.959Z,99.90
2022-10-11T19:42:38.625Z,99.90
2022-10-11T19:47:41.786Z,99.90
2022-10-11T19:52:45.404Z,99.90
2022-10-11T19:57:50.407Z,99.90
2022-10-11T20:02:53.625Z,99.90
2022-10-11T20:07:57.192Z,99.90
2022-10-11T20:13:01.574Z,99.90
2022-10-11T20:18:05.383Z,99.90
2022-10-11T20:23:08.526Z,99.90
2022-10-11T20:28:13.784Z,99.90
2022-10-11T20:33:17.183Z,99.90
2022-10-11T20:38:20.660Z,99.90
2022-10-11T20:43:27.075Z,99.90
2022-10-11T20:48:30.492Z,99.90
2022-10-11T20:53:35.386Z,99.90
2022-10-11T20:58:40.121Z,99.90
2022-10-11T21:03:45.433Z,99.90
2022-10-11T21:08:48.547Z,99.90
2022-10-11T21:13:57.327Z,99.90
2022-10-11T21:19:01.565Z,99.90
2022-10-11T21:24:05.564Z,99.90
2022-10-11T21:29:10.152Z,99.90
2022-10-11T21:34:15.953Z,99.90
2022-10-11T21:39:21.133Z,99.90
2022-10-11T21:44:31.679Z,99.90
2022-10-11T21:49:35.147Z,99.90
2022-10-11T21:54:39.327Z,99.90
2022-10-11T21:59:44.621Z,99.90
2022-10-11T22:04:47.790Z,99.90
2022-10-11T22:09:51.749Z,99.90
2022-10-11T22:14:58.316Z,99.90
2022-10-11T22:20:01.898Z,99.90
2022-10-11T22:25:05.843Z,99.90
2022-10-11T22:30:11.479Z,99.90
2022-10-11T22:35:15.578Z,99.90
2022-10-11T22:40:18.959Z,99.90
2022-10-11T22:45:29.763Z,99.90
2022-10-11T22:50:33.055Z,99.90
2022-10-11T22:55:36.806Z,99.90
2022-10-11T23:00:41.735Z,99.90
2022-10-11T23:05:54.699Z,99.90
2022-10-11T23:10:58.026Z,99.90
2022-10-11T23:16:30.745Z,99.90
2022-10-11T23:21:34.136Z,99.90
2022-10-11T23:26:45.676Z,99.90
2022-10-11T23:31:50.093Z,99.90
2022-10-11T23:36:53.679Z,99.90
2022-10-11T23:41:56.723Z,99.90
2022-10-11T23:47:01.821Z,99.90
2022-10-11T23:52:05.409Z,99.90
2022-10-11T23:57:11.033Z,99.90
